createdAt,value
2019-02-03T00:00:12.303Z,13.23
2019-02-03T00:02:42.836Z,13.13
2019-02-03T00:05:12.419Z,13.57
2019-02-03T00:07:40.925Z,12.90
2019-02-03T00:10:10.313Z,14.20
2019-02-03T00:12:38.861Z,14.30
2019-02-03T00:15:10.387Z,15.27
2019-02-03T00:17:38.971Z,14.67
2019-02-03T00:20:11.443Z,15.37
2019-02-03T00:22:40.312Z,13.70
2019-02-03T00:25:09.938Z,14.97
2019-02-03T00:27:38.418Z,14.57
2019-02-03T00:30:12.464Z,15.87
2019-02-03T00:32:40.994Z,15.77
2019-02-03T00:35:09.857Z,14.07
2019-02-03T00:37:38.370Z,16.50
2019-02-03T00:40:12.224Z,14.67
2019-02-03T00:42:40.703Z,15.17
2019-02-03T00:45:12.236Z,16.53
2019-02-03T00:47:41.087Z,16.50
2019-02-03T00:50:16.547Z,15.73
2019-02-03T00:52:44.977Z,14.07
2019-02-03T00:55:16.302Z,15.63
2019-02-03T00:57:44.877Z,15.50
2019-02-03T01:00:16.403Z,15.13
2019-02-03T01:02:45.015Z,16.77
2019-02-03T01:05:16.346Z,16.20
2019-02-03T01:07:45.084Z,15.93
2019-02-03T01:10:19.528Z,15.70
2019-02-03T01:12:48.271Z,16.00
2019-02-03T01:15:17.033Z,15.97
2019-02-03T01:17:45.536Z,15.47
2019-02-03T01:20:19.499Z,16.67
2019-02-03T01:22:48.441Z,16.60
2019-02-03T01:25:17.328Z,16.77
2019-02-03T01:27:46.064Z,15.70
2019-02-03T01:30:17.545Z,16.37
2019-02-03T01:32:46.026Z,16.17
2019-02-03T01:35:14.764Z,18.83
2019-02-03T01:37:43.224Z,18.70
2019-02-03T01:40:14.800Z,18.33
2019-02-03T01:42:43.280Z,19.57
2019-02-03T01:45:20.313Z,18.23
2019-02-03T01:47:48.806Z,18.93
2019-02-03T01:50:17.364Z,21.03
2019-02-03T01:52:46.072Z,21.07
2019-02-03T01:55:19.995Z,21.20
2019-02-03T01:57:50.246Z,22.40
2019-02-03T02:00:20.949Z,23.87
2019-02-03T02:02:49.485Z,24.27
2019-02-03T02:05:18.140Z,24.80
2019-02-03T02:07:51.678Z,25.10
2019-02-03T02:10:19.643Z,24.67
2019-02-03T02:12:48.110Z,26.40
2019-02-03T02:15:20.952Z,23.80
2019-02-03T02:17:50.260Z,27.67
2019-02-03T02:20:23.763Z,25.93
2019-02-03T02:22:52.385Z,25.97
2019-02-03T02:25:20.938Z,27.00
2019-02-03T02:27:49.469Z,25.83
2019-02-03T02:30:21.033Z,28.57
2019-02-03T02:32:49.502Z,27.83
2019-02-03T02:35:18.018Z,25.80
2019-02-03T02:37:48.222Z,25.27
2019-02-03T02:40:18.694Z,25.70
2019-02-03T02:42:47.201Z,26.70
2019-02-03T02:45:16.817Z,29.47
2019-02-03T02:47:45.348Z,26.13
2019-02-03T02:50:29.025Z,27.93
2019-02-03T02:52:57.506Z,26.73
2019-02-03T02:55:25.986Z,25.83
2019-02-03T02:57:54.477Z,26.73
2019-02-03T03:00:24.707Z,28.37
2019-02-03T03:02:53.305Z,25.87
2019-02-03T03:05:22.029Z,26.77
2019-02-03T03:07:50.890Z,26.13
2019-02-03T03:10:20.476Z,25.90
2019-02-03T03:12:49.820Z,27.13
2019-02-03T03:15:20.592Z,26.83
2019-02-03T03:17:49.513Z,26.03
2019-02-03T03:20:19.918Z,26.23
2019-02-03T03:22:50.240Z,27.27
2019-02-03T03:25:21.081Z,27.47
2019-02-03T03:27:49.934Z,24.37
2019-02-03T03:30:26.683Z,26.37
2019-02-03T03:32:55.273Z,26.63
2019-02-03T03:35:24.679Z,24.70
2019-02-03T03:37:53.215Z,26.10
2019-02-03T03:40:23.917Z,28.10
2019-02-03T03:42:52.561Z,25.13
2019-02-03T03:45:21.167Z,26.33
2019-02-03T03:47:49.786Z,24.67
2019-02-03T03:50:19.565Z,24.50
2019-02-03T03:52:48.122Z,24.97
2019-02-03T03:55:16.604Z,23.50
2019-02-03T03:57:45.363Z,24.20
2019-02-03T04:00:19.445Z,24.50
2019-02-03T04:02:48.650Z,25.07
2019-02-03T04:05:17.268Z,24.57
2019-02-03T04:07:45.827Z,25.20
2019-02-03T04:10:19.574Z,23.37
2019-02-03T04:12:49.362Z,25.73
2019-02-03T04:15:19.543Z,25.53
2019-02-03T04:17:48.657Z,25.10
2019-02-03T04:20:28.398Z,25.83
2019-02-03T04:22:56.912Z,26.30
2019-02-03T04:25:25.452Z,25.80
2019-02-03T04:27:53.950Z,26.47
2019-02-03T04:30:27.006Z,24.87
2019-02-03T04:32:56.772Z,25.70
2019-02-03T04:35:25.304Z,24.80
2019-02-03T04:37:53.798Z,26.53
2019-02-03T04:40:22.907Z,26.43
2019-02-03T04:42:51.512Z,26.50
2019-02-03T04:45:22.858Z,23.30
2019-02-03T04:47:50.486Z,23.87
2019-02-03T04:50:22.762Z,25.00
2019-02-03T04:52:51.253Z,25.27
2019-02-03T04:55:21.741Z,24.50
2019-02-03T04:57:50.223Z,24.17
2019-02-03T05:00:23.549Z,25.37
2019-02-03T05:02:52.108Z,24.13
2019-02-03T05:05:20.917Z,21.73
2019-02-03T05:07:49.482Z,21.40
2019-02-03T05:10:19.590Z,23.60
2019-02-03T05:12:48.217Z,24.13
2019-02-03T05:15:21.878Z,25.13
2019-02-03T05:17:50.980Z,23.63
2019-02-03T05:20:22.324Z,22.93
2019-02-03T05:22:50.804Z,24.57
2019-02-03T05:25:19.279Z,27.07
2019-02-03T05:27:47.768Z,26.43
2019-02-03T05:30:19.297Z,25.77
2019-02-03T05:32:47.783Z,25.67
2019-02-03T05:35:16.636Z,26.40
2019-02-03T05:37:45.138Z,29.90
2019-02-03T05:40:15.766Z,27.13
2019-02-03T05:42:44.228Z,25.83
2019-02-03T05:45:15.744Z,27.50
2019-02-03T05:47:44.254Z,26.37
2019-02-03T05:50:15.564Z,26.03
2019-02-03T05:52:44.198Z,26.43
2019-02-03T05:55:13.440Z,27.20
2019-02-03T05:57:42.591Z,27.10
2019-02-03T06:00:14.080Z,24.67
2019-02-03T06:02:43.051Z,25.10
2019-02-03T06:05:11.609Z,26.63
2019-02-03T06:07:40.088Z,24.93
2019-02-03T06:10:11.650Z,25.00
2019-02-03T06:12:40.180Z,27.23
2019-02-03T06:15:10.017Z,24.97
2019-02-03T06:17:38.570Z,25.80
2019-02-03T06:20:10.465Z,25.00
2019-02-03T06:22:38.946Z,26.90
2019-02-03T06:25:09.790Z,25.60
2019-02-03T06:27:38.268Z,26.67
2019-02-03T06:30:22.195Z,25.80
2019-02-03T06:32:51.018Z,24.77
2019-02-03T06:35:19.532Z,25.53
2019-02-03T06:37:47.994Z,26.27
2019-02-03T06:40:16.478Z,25.27
2019-02-03T06:42:44.970Z,25.13
2019-02-03T06:45:33.517Z,26.00
2019-02-03T06:48:01.992Z,25.80
2019-02-03T06:50:30.487Z,26.43
2019-02-03T06:53:01.156Z,27.40
2019-02-03T06:55:29.619Z,24.03
2019-02-03T06:57:58.108Z,25.33
2019-02-03T07:00:26.608Z,24.73
2019-02-03T07:02:55.098Z,25.43
2019-02-03T07:05:23.619Z,27.17
2019-02-03T07:07:52.081Z,27.43
2019-02-03T07:10:20.583Z,24.27
2019-02-03T07:12:49.063Z,25.63
2019-02-03T07:15:17.573Z,25.30
2019-02-03T07:17:46.031Z,25.27
2019-02-03T07:20:18.774Z,25.77
2019-02-03T07:22:47.259Z,24.37
2019-02-03T07:25:15.562Z,25.27
2019-02-03T07:27:44.119Z,25.07
2019-02-03T07:30:18.225Z,25.20
2019-02-03T07:32:46.710Z,26.60
2019-02-03T07:35:15.291Z,25.70
2019-02-03T07:37:43.765Z,25.93
2019-02-03T07:40:21.207Z,24.20
2019-02-03T07:42:49.683Z,26.23
2019-02-03T07:45:18.198Z,25.53
2019-02-03T07:47:47.076Z,24.47
2019-02-03T07:50:16.701Z,27.70
2019-02-03T07:52:45.445Z,24.57
2019-02-03T07:55:14.788Z,24.67
2019-02-03T07:57:43.630Z,24.37
2019-02-03T08:00:19.599Z,24.07
2019-02-03T08:02:48.212Z,24.30
2019-02-03T08:05:16.918Z,23.53
2019-02-03T08:07:45.457Z,23.50
2019-02-03T08:10:24.348Z,25.37
2019-02-03T08:12:46.470Z,24.43
2019-02-03T08:15:19.669Z,24.27
2019-02-03T08:17:48.154Z,22.90
2019-02-03T08:20:25.203Z,22.60
2019-02-03T08:22:53.747Z,23.53
2019-02-03T08:25:22.335Z,25.03
2019-02-03T08:27:50.811Z,23.70
2019-02-03T08:30:22.363Z,22.47
2019-02-03T08:32:50.845Z,23.53
2019-02-03T08:35:20.022Z,23.63
2019-02-03T08:37:48.670Z,20.50
2019-02-03T08:40:36.136Z,21.50
2019-02-03T08:42:55.942Z,23.77
2019-02-03T08:45:26.032Z,22.03
2019-02-03T08:47:54.498Z,22.60
2019-02-03T08:50:24.140Z,21.97
2019-02-03T08:52:52.979Z,20.50
2019-02-03T08:55:21.459Z,21.63
2019-02-03T08:57:49.939Z,21.37
2019-02-03T09:00:24.426Z,22.37
2019-02-03T09:02:52.911Z,23.23
2019-02-03T09:05:21.392Z,21.40
2019-02-03T09:07:50.141Z,21.90
2019-02-03T09:10:20.946Z,19.07
2019-02-03T09:12:49.436Z,22.90
2019-02-03T09:15:22.891Z,21.30
2019-02-03T09:17:51.551Z,20.47
2019-02-03T09:20:22.992Z,19.33
2019-02-03T09:22:51.483Z,19.10
2019-02-03T09:25:19.968Z,19.33
2019-02-03T09:27:48.479Z,19.70
2019-02-03T09:30:19.916Z,18.87
2019-02-03T09:32:48.412Z,18.50
2019-02-03T09:35:17.012Z,17.93
2019-02-03T09:37:45.581Z,19.23
2019-02-03T09:40:19.266Z,17.70
2019-02-03T09:42:48.008Z,17.57
2019-02-03T09:45:19.520Z,17.60
2019-02-03T09:47:48.296Z,18.33
2019-02-03T09:50:27.736Z,17.53
2019-02-03T09:52:57.967Z,20.10
2019-02-03T09:55:26.574Z,18.33
2019-02-03T09:57:55.214Z,18.07
2019-02-03T10:00:26.884Z,18.80
2019-02-03T10:02:56.722Z,18.37
2019-02-03T10:05:25.870Z,16.50
2019-02-03T10:07:54.513Z,18.40
2019-02-03T10:10:25.861Z,16.10
2019-02-03T10:12:54.804Z,15.17
2019-02-03T10:15:23.285Z,15.70
2019-02-03T10:17:51.789Z,16.50
2019-02-03T10:20:22.725Z,16.03
2019-02-03T10:22:51.289Z,15.87
2019-02-03T10:25:25.377Z,16.07
2019-02-03T10:27:53.936Z,14.20
2019-02-03T10:30:23.646Z,15.50
2019-02-03T10:32:52.283Z,17.03
2019-02-03T10:35:26.085Z,16.97
2019-02-03T10:37:54.926Z,15.87
2019-02-03T10:40:26.323Z,15.87
2019-02-03T10:42:57.164Z,16.77
2019-02-03T10:45:26.078Z,16.47
2019-02-03T10:47:54.567Z,15.80
2019-02-03T10:50:25.853Z,16.03
2019-02-03T10:52:54.901Z,16.73
2019-02-03T10:55:23.443Z,17.80
2019-02-03T10:57:51.933Z,16.97
2019-02-03T11:00:22.854Z,16.90
2019-02-03T11:02:51.501Z,16.13
2019-02-03T11:05:25.412Z,17.07
2019-02-03T11:07:54.421Z,20.33
2019-02-03T11:10:27.512Z,17.57
2019-02-03T11:12:55.996Z,15.57
2019-02-03T11:15:25.120Z,17.27
2019-02-03T11:17:53.950Z,17.63
2019-02-03T11:20:30.781Z,17.53
2019-02-03T11:22:59.426Z,17.63
2019-02-03T11:25:30.252Z,18.33
2019-02-03T11:27:58.902Z,17.47
2019-02-03T11:30:31.512Z,18.03
2019-02-03T11:33:05.327Z,18.33
2019-02-03T11:35:33.256Z,16.40
2019-02-03T11:38:03.628Z,16.40
2019-02-03T11:40:37.304Z,14.57
2019-02-03T11:43:07.152Z,16.03
2019-02-03T11:45:40.753Z,15.13
2019-02-03T11:48:15.337Z,16.07
2019-02-03T11:50:45.268Z,15.33
2019-02-03T11:53:22.534Z,15.10
2019-02-03T11:55:53.630Z,16.30
2019-02-03T11:58:21.552Z,15.20
2019-02-03T12:00:50.375Z,15.80
2019-02-03T12:03:19.036Z,15.57
2019-02-03T12:05:47.506Z,14.30
2019-02-03T12:08:16.091Z,15.47
2019-02-03T12:10:44.563Z,15.43
2019-02-03T12:13:13.133Z,15.90
2019-02-03T12:15:41.669Z,16.33
2019-02-03T12:18:10.260Z,15.67
2019-02-03T12:20:38.751Z,16.10
2019-02-03T12:23:07.472Z,15.30
2019-02-03T12:25:38.581Z,14.67
2019-02-03T12:28:07.866Z,16.00
2019-02-03T12:30:36.700Z,15.63
2019-02-03T12:33:07.101Z,15.50
2019-02-03T12:35:36.231Z,16.03
2019-02-03T12:38:05.460Z,14.87
2019-02-03T12:40:39.131Z,15.37
2019-02-03T12:43:07.841Z,16.23
2019-02-03T12:45:36.823Z,14.93
2019-02-03T12:48:07.148Z,14.07
2019-02-03T12:50:35.812Z,15.00
2019-02-03T12:53:04.916Z,14.60
2019-02-03T12:55:33.673Z,13.70
2019-02-03T12:58:02.158Z,14.27
2019-02-03T13:00:33.399Z,13.47
2019-02-03T13:03:01.935Z,15.07
2019-02-03T13:05:31.985Z,14.23
2019-02-03T13:08:01.561Z,14.37
2019-02-03T13:10:32.677Z,17.00
2019-02-03T13:13:01.422Z,14.23
2019-02-03T13:15:33.810Z,14.83
2019-02-03T13:18:02.429Z,15.20
2019-02-03T13:20:33.951Z,14.93
2019-02-03T13:23:03.151Z,13.10
2019-02-03T13:25:31.674Z,15.80
2019-02-03T13:28:00.125Z,14.53
2019-02-03T13:30:31.515Z,15.10
2019-02-03T13:33:00.078Z,13.87
2019-02-03T13:35:29.312Z,14.27
2019-02-03T13:37:57.852Z,15.20
2019-02-03T13:40:27.466Z,15.13
2019-02-03T13:42:55.945Z,12.93
2019-02-03T13:45:26.172Z,13.67
2019-02-03T13:47:58.070Z,12.67
2019-02-03T13:50:28.878Z,13.07
2019-02-03T13:52:57.789Z,13.30
2019-02-03T13:55:29.587Z,12.63
2019-02-03T13:57:58.050Z,13.77
2019-02-03T14:00:42.080Z,14.80
2019-02-03T14:03:12.131Z,12.93
2019-02-03T14:05:40.812Z,14.53
2019-02-03T14:08:09.999Z,13.57
2019-02-03T14:10:38.498Z,13.33
2019-02-03T14:13:08.813Z,13.13
2019-02-03T14:15:38.199Z,11.63
2019-02-03T14:18:07.014Z,11.87
2019-02-03T14:20:35.497Z,12.10
2019-02-03T14:23:05.580Z,12.60
2019-02-03T14:25:35.646Z,11.93
2019-02-03T14:28:04.498Z,12.67
2019-02-03T14:30:41.665Z,10.20
2019-02-03T14:33:10.281Z,11.13
2019-02-03T14:35:40.245Z,11.77
2019-02-03T14:38:08.939Z,11.90
2019-02-03T14:40:37.600Z,10.57
2019-02-03T14:43:06.179Z,11.07
2019-02-03T14:45:35.636Z,12.10
2019-02-03T14:48:04.675Z,11.60
2019-02-03T14:50:33.159Z,10.23
2019-02-03T14:53:04.609Z,10.73
2019-02-03T14:55:35.740Z,10.27
2019-02-03T14:58:04.873Z,11.60
2019-02-03T15:00:41.952Z,10.70
2019-02-03T15:03:13.712Z,10.80
2019-02-03T15:05:42.268Z,10.73
2019-02-03T15:08:10.747Z,11.00
2019-02-03T15:10:39.327Z,10.03
2019-02-03T15:13:14.003Z,9.97
2019-02-03T15:15:39.575Z,9.90
2019-02-03T15:18:09.623Z,10.23
2019-02-03T15:20:38.169Z,10.63
2019-02-03T15:23:08.202Z,9.63
2019-02-03T15:25:38.255Z,9.07
2019-02-03T15:28:10.537Z,10.90
2019-02-03T15:30:41.250Z,9.10
2019-02-03T15:33:09.826Z,11.27
2019-02-03T15:35:38.592Z,10.70
2019-02-03T15:38:07.921Z,9.23
2019-02-03T15:40:36.465Z,8.97
2019-02-03T15:43:06.866Z,10.13
2019-02-03T15:45:35.416Z,10.80
2019-02-03T15:48:04.268Z,10.27
2019-02-03T15:50:32.735Z,10.67
2019-02-03T15:53:01.301Z,9.97
2019-02-03T15:55:33.883Z,9.60
2019-02-03T15:58:02.701Z,10.80
2019-02-03T16:00:46.207Z,10.27
2019-02-03T16:03:14.760Z,9.17
2019-02-03T16:05:43.232Z,10.63
2019-02-03T16:08:13.422Z,9.07
2019-02-03T16:10:41.969Z,9.00
2019-02-03T16:13:10.880Z,9.33
2019-02-03T16:15:39.448Z,8.67
2019-02-03T16:18:08.577Z,10.50
2019-02-03T16:20:37.148Z,9.17
2019-02-03T16:23:07.122Z,8.73
2019-02-03T16:25:35.694Z,10.87
2019-02-03T16:28:04.982Z,9.23
2019-02-03T16:30:38.667Z,9.60
2019-02-03T16:33:09.668Z,9.30
2019-02-03T16:35:38.579Z,10.13
2019-02-03T16:38:07.800Z,9.40
2019-02-03T16:40:36.741Z,9.53
2019-02-03T16:43:05.662Z,9.63
2019-02-03T16:45:34.815Z,8.70
2019-02-03T16:48:03.268Z,9.53
2019-02-03T16:50:32.970Z,9.50
2019-02-03T16:53:06.374Z,8.40
2019-02-03T16:55:35.032Z,9.63
2019-02-03T16:58:03.803Z,10.33
2019-02-03T17:00:33.108Z,8.73
2019-02-03T17:03:01.985Z,9.00
2019-02-03T17:05:31.759Z,8.63
2019-02-03T17:08:04.425Z,9.00
2019-02-03T17:10:33.044Z,8.60
2019-02-03T17:13:01.532Z,9.10
2019-02-03T17:15:45.230Z,8.93
2019-02-03T17:18:14.495Z,8.93
2019-02-03T17:20:43.046Z,9.40
2019-02-03T17:23:11.605Z,9.63
2019-02-03T17:25:42.982Z,9.10
2019-02-03T17:28:12.030Z,9.00
2019-02-03T17:30:40.554Z,9.43
2019-02-03T17:33:09.243Z,8.70
2019-02-03T17:35:37.782Z,9.70
2019-02-03T17:38:06.339Z,9.40
2019-02-03T17:40:34.872Z,9.10
2019-02-03T17:43:03.911Z,9.37
2019-02-03T17:45:32.389Z,9.07
2019-02-03T17:48:01.214Z,10.20
2019-02-03T17:50:33.477Z,10.87
2019-02-03T17:53:02.148Z,10.33
2019-02-03T17:55:30.629Z,11.47
2019-02-03T17:57:59.510Z,10.73
2019-02-03T18:00:33.865Z,9.90
2019-02-03T18:03:02.417Z,9.87
2019-02-03T18:05:30.971Z,10.20
2019-02-03T18:08:00.312Z,9.30
2019-02-03T18:10:28.788Z,9.83
2019-02-03T18:12:57.295Z,9.17
2019-02-03T18:15:25.820Z,8.97
2019-02-03T18:17:55.245Z,10.00
2019-02-03T18:20:25.917Z,10.23
2019-02-03T18:22:54.410Z,9.53
2019-02-03T18:25:23.339Z,10.67
2019-02-03T18:27:52.388Z,10.03
2019-02-03T18:30:25.658Z,10.73
2019-02-03T18:32:55.809Z,9.10
2019-02-03T18:35:24.423Z,10.87
2019-02-03T18:37:54.606Z,10.03
2019-02-03T18:40:23.536Z,10.60
2019-02-03T18:42:52.184Z,9.67
2019-02-03T18:45:22.686Z,9.60
2019-02-03T18:47:51.340Z,10.33
2019-02-03T18:50:21.937Z,9.43
2019-02-03T18:52:50.794Z,8.53
2019-02-03T18:55:22.070Z,9.80
2019-02-03T18:57:50.627Z,8.90
2019-02-03T19:00:27.845Z,9.53
2019-02-03T19:02:56.400Z,9.73
2019-02-03T19:05:27.805Z,8.97
2019-02-03T19:07:56.294Z,8.63
2019-02-03T19:10:26.615Z,10.63
2019-02-03T19:12:55.076Z,10.43
2019-02-03T19:15:25.913Z,9.70
2019-02-03T19:17:55.778Z,8.63
2019-02-03T19:20:36.009Z,8.73
2019-02-03T19:23:05.581Z,7.57
2019-02-03T19:25:34.142Z,8.27
2019-02-03T19:28:02.770Z,9.03
2019-02-03T19:30:31.708Z,7.80
2019-02-03T19:33:00.184Z,8.03
2019-02-03T19:35:30.689Z,8.40
2019-02-03T19:37:59.192Z,7.77
2019-02-03T19:40:33.005Z,7.97
2019-02-03T19:43:01.488Z,9.50
2019-02-03T19:45:32.152Z,7.87
2019-02-03T19:48:00.797Z,7.50
2019-02-03T19:50:32.076Z,7.40
2019-02-03T19:53:00.643Z,7.90
2019-02-03T19:55:29.247Z,7.40
2019-02-03T19:57:59.066Z,7.47
2019-02-03T20:00:32.810Z,6.70
2019-02-03T20:03:01.428Z,5.70
2019-02-03T20:05:29.893Z,7.57
2019-02-03T20:07:58.583Z,6.90
2019-02-03T20:10:29.361Z,5.80
2019-02-03T20:12:57.829Z,5.53
2019-02-03T20:15:26.495Z,6.87
2019-02-03T20:17:57.877Z,7.33
2019-02-03T20:20:28.114Z,5.63
2019-02-03T20:22:56.653Z,5.70
2019-02-03T20:25:25.850Z,5.90
2019-02-03T20:27:54.327Z,5.70
2019-02-03T20:30:37.380Z,6.13
2019-02-03T20:32:55.458Z,5.37
2019-02-03T20:35:26.193Z,5.87
2019-02-03T20:37:54.880Z,5.67
2019-02-03T20:40:37.950Z,4.97
2019-02-03T20:43:06.493Z,5.10
2019-02-03T20:45:36.239Z,5.03
2019-02-03T20:48:05.169Z,5.20
2019-02-03T20:50:33.804Z,5.40
2019-02-03T20:53:02.263Z,5.47
2019-02-03T20:55:30.758Z,5.00
2019-02-03T20:57:59.223Z,4.57
2019-02-03T21:00:35.615Z,4.60
2019-02-03T21:03:04.783Z,4.67
2019-02-03T21:05:33.915Z,4.87
2019-02-03T21:08:02.384Z,4.97
2019-02-03T21:10:31.338Z,4.87
2019-02-03T21:13:10.796Z,5.20
2019-02-03T21:15:33.954Z,5.10
2019-02-03T21:18:01.472Z,5.40
2019-02-03T21:20:37.542Z,5.17
2019-02-03T21:23:06.931Z,5.20
2019-02-03T21:25:35.479Z,4.77
2019-02-03T21:28:05.958Z,4.63
2019-02-03T21:30:36.698Z,4.10
2019-02-03T21:33:06.739Z,4.27
2019-02-03T21:35:35.225Z,5.30
2019-02-03T21:38:03.768Z,4.37
2019-02-03T21:40:32.542Z,5.50
2019-02-03T21:43:01.153Z,3.97
2019-02-03T21:45:29.849Z,4.87
2019-02-03T21:47:59.468Z,4.53
2019-02-03T21:50:29.716Z,3.73
2019-02-03T21:52:58.746Z,3.80
2019-02-03T21:55:27.380Z,4.43
2019-02-03T21:57:55.919Z,4.50
2019-02-03T22:00:30.203Z,4.03
2019-02-03T22:03:00.791Z,5.53
2019-02-03T22:05:29.726Z,4.80
2019-02-03T22:07:58.351Z,4.70
2019-02-03T22:10:29.446Z,3.57
2019-02-03T22:12:59.066Z,3.93
2019-02-03T22:15:27.637Z,3.87
2019-02-03T22:17:57.736Z,3.63
2019-02-03T22:20:26.563Z,4.03
2019-02-03T22:22:55.131Z,4.07
2019-02-03T22:25:23.695Z,4.10
2019-02-03T22:27:52.607Z,4.20
2019-02-03T22:30:33.045Z,4.57
2019-02-03T22:33:01.487Z,3.77
2019-02-03T22:35:30.155Z,3.73
2019-02-03T22:37:58.611Z,4.40
2019-02-03T22:40:27.551Z,4.43
2019-02-03T22:42:56.077Z,3.60
2019-02-03T22:45:25.727Z,3.27
2019-02-03T22:47:54.428Z,3.50
2019-02-03T22:50:27.942Z,4.83
2019-02-03T22:52:58.433Z,4.50
2019-02-03T22:55:26.926Z,3.93
2019-02-03T22:57:55.518Z,4.03
2019-02-03T23:00:47.062Z,4.20
2019-02-03T23:03:16.144Z,4.53
2019-02-03T23:05:44.668Z,4.70
2019-02-03T23:08:13.193Z,4.67
2019-02-03T23:10:41.766Z,5.10
2019-02-03T23:13:10.251Z,4.73
2019-02-03T23:15:39.380Z,5.03
2019-02-03T23:18:08.271Z,4.13
2019-02-03T23:20:36.846Z,4.43
2019-02-03T23:23:05.312Z,4.30
2019-02-03T23:25:33.812Z,3.97
2019-02-03T23:28:02.271Z,3.50
2019-02-03T23:30:30.756Z,4.33
2019-02-03T23:32:59.599Z,3.90
2019-02-03T23:35:28.156Z,4.17
2019-02-03T23:37:56.634Z,4.37
2019-02-03T23:40:25.182Z,4.40
2019-02-03T23:42:53.702Z,4.27
2019-02-03T23:45:22.177Z,4.30
2019-02-03T23:47:51.612Z,4.57
2019-02-03T23:50:21.534Z,3.80
2019-02-03T23:52:50.015Z,4.50
2019-02-03T23:55:18.453Z,4.00
2019-02-03T23:57:46.929Z,4.47
